Time;durP1;ratioP1;P1;durP2;ratioP2;P2;SDS_P1;SDS_P2;PMS_P1;PMS_P2;Temp;Humidity;BMP_temperature;BMP_pressure;BME280_temperature;BME280_humidity;BME280_pressure;Samples;Min_cycle;Max_cycle;Signal;HPM_P1;HPM_P2
2022/05/15 00:02:14;;;;;;;20.15;6.72;;;12.70;99.90;;;;;;5110363;27;20412;-84
2022/05/15 00:04:40;;;;;;;27.55;6.88;;;12.60;99.90;;;;;;5100147;27;20032;-84
2022/05/15 00:07:06;;;;;;;20.70;6.88;;;12.60;99.90;;;;;;5114999;28;20402;-84
2022/05/15 00:09:32;;;;;;;25.45;6.68;;;12.50;99.90;;;;;;5130674;27;20054;-84
2022/05/15 00:11:58;;;;;;;27.50;7.75;;;12.50;99.90;;;;;;5113901;27;20031;-84
2022/05/15 00:14:25;;;;;;;24.58;6.53;;;12.50;99.90;;;;;;5113738;28;20036;-84
2022/05/15 00:16:51;;;;;;;22.75;5.85;;;12.50;99.90;;;;;;5110399;28;20036;-84
2022/05/15 00:19:16;;;;;;;25.58;5.93;;;12.40;99.90;;;;;;5101903;27;20539;-84
2022/05/15 00:21:42;;;;;;;23.30;6.47;;;12.40;99.90;;;;;;5112052;27;20039;-84
2022/05/15 00:24:10;;;;;;;26.27;6.95;;;12.40;99.90;;;;;;5115287;27;20122;-84
2022/05/15 00:26:36;;;;;;;24.10;6.60;;;12.40;99.90;;;;;;5101729;27;20543;-84
2022/05/15 00:29:01;;;;;;;24.77;5.95;;;12.40;99.90;;;;;;5102183;27;20035;-84
2022/05/15 00:31:27;;;;;;;24.95;6.35;;;12.30;99.90;;;;;;5100848;27;20055;-84
2022/05/15 00:33:53;;;;;;;27.00;6.47;;;12.30;99.90;;;;;;5098986;27;20487;-84
2022/05/15 00:36:19;;;;;;;26.75;6.55;;;12.20;99.90;;;;;;5085350;27;20471;-84
2022/05/15 00:38:45;;;;;;;24.80;6.70;;;12.30;99.90;;;;;;5082871;28;20126;-84
2022/05/15 00:41:11;;;;;;;23.02;6.65;;;12.20;99.90;;;;;;5095157;27;20403;-84
2022/05/15 00:43:40;;;;;;;24.25;6.13;;;12.10;99.90;;;;;;5117940;27;20046;-85
2022/05/15 00:46:10;;;;;;;22.00;5.72;;;12.10;99.90;;;;;;5114496;27;20071;-84
2022/05/15 00:48:36;;;;;;;28.20;6.72;;;12.10;99.90;;;;;;5119448;27;20047;-84
2022/05/15 00:51:09;;;;;;;23.05;5.95;;;12.00;99.90;;;;;;5101591;27;20035;-84
2022/05/15 00:53:36;;;;;;;23.63;6.50;;;12.00;99.90;;;;;;5120041;27;20046;-84
2022/05/15 00:56:02;;;;;;;25.70;6.85;;;12.00;99.90;;;;;;5102725;27;20067;-84
2022/05/15 00:58:35;;;;;;;22.95;6.40;;;11.90;99.90;;;;;;5116612;28;20071;-84
2022/05/15 01:01:03;;;;;;;21.23;6.00;;;12.00;99.90;;;;;;5112222;28;20067;-84
2022/05/15 01:03:29;;;;;;;24.30;6.35;;;11.90;99.90;;;;;;5108157;27;20359;-84
2022/05/15 01:05:56;;;;;;;23.40;6.03;;;11.90;99.90;;;;;;5110422;27;20047;-84
2022/05/15 01:08:23;;;;;;;26.98;6.68;;;11.90;99.90;;;;;;5115770;27;20063;-84
2022/05/15 01:10:59;;;;;;;24.50;6.38;;;11.80;99.90;;;;;;5092025;28;20034;-84
2022/05/15 01:13:30;;;;;;;26.30;6.50;;;11.80;99.90;;;;;;5116571;27;20039;-84
2022/05/15 01:15:56;;;;;;;21.95;5.68;;;11.70;99.90;;;;;;5100149;27;20047;-84
2022/05/15 01:18:27;;;;;;;24.92;6.22;;;11.70;99.90;;;;;;5118593;27;20039;-84
2022/05/15 01:20:58;;;;;;;25.67;6.25;;;11.70;99.90;;;;;;5113753;27;20043;-84
2022/05/15 01:23:23;;;;;;;22.40;6.25;;;11.60;99.90;;;;;;5117793;27;20078;-84
2022/05/15 01:25:49;;;;;;;22.88;6.13;;;11.60;99.90;;;;;;5117627;27;20092;-84
2022/05/15 01:28:22;;;;;;;23.00;6.28;;;11.60;99.90;;;;;;5090885;27;20399;-83
2022/05/15 01:30:51;;;;;;;25.55;6.88;;;11.60;99.90;;;;;;5099944;27;20035;-84
2022/05/15 01:33:18;;;;;;;24.58;6.03;;;11.60;99.90;;;;;;5094065;28;20077;-84
2022/05/15 01:35:43;;;;;;;30.27;7.00;;;11.50;99.90;;;;;;5109651;27;20111;-84
2022/05/15 01:38:10;;;;;;;23.27;5.95;;;11.50;99.90;;;;;;5117870;27;20031;-84
2022/05/15 01:40:36;;;;;;;23.15;6.22;;;11.50;99.90;;;;;;5097008;28;20055;-84
2022/05/15 01:43:04;;;;;;;28.15;6.35;;;11.50;99.90;;;;;;5089035;27;20051;-84
2022/05/15 01:45:29;;;;;;;21.48;6.28;;;11.40;99.90;;;;;;5101232;27;20036;-84
2022/05/15 01:47:55;;;;;;;22.05;6.18;;;11.40;99.90;;;;;;5081151;27;20168;-84
2022/05/15 01:50:22;;;;;;;25.13;6.70;;;11.30;99.90;;;;;;5076458;27;20046;-84
2022/05/15 01:52:48;;;;;;;20.33;5.80;;;11.30;99.90;;;;;;5117024;27;20470;-84
2022/05/15 01:55:14;;;;;;;24.88;6.28;;;11.30;99.90;;;;;;5097913;27;20170;-84
2022/05/15 01:57:40;;;;;;;28.73;6.97;;;11.20;99.90;;;;;;5082388;27;20035;-84
2022/05/15 02:00:09;;;;;;;22.73;6.65;;;11.30;99.90;;;;;;5117259;27;20411;-84
2022/05/15 02:02:34;;;;;;;23.52;5.70;;;11.20;99.90;;;;;;5117631;27;20135;-84
2022/05/15 02:05:00;;;;;;;25.42;6.00;;;11.10;99.90;;;;;;5100295;27;20493;-84
2022/05/15 02:07:26;;;;;;;21.08;6.25;;;11.10;99.90;;;;;;5116062;27;20127;-84
2022/05/15 02:09:51;;;;;;;21.38;6.35;;;11.00;99.90;;;;;;5098360;27;20032;-83
2022/05/15 02:12:17;;;;;;;27.48;6.25;;;11.00;99.90;;;;;;5099271;27;20035;-84
2022/05/15 02:14:43;;;;;;;27.60;7.07;;;11.00;99.90;;;;;;5101044;27;20039;-84
2022/05/15 02:17:08;;;;;;;27.63;5.90;;;10.90;99.90;;;;;;5109616;28;20035;-84
2022/05/15 02:19:34;;;;;;;26.33;6.70;;;10.90;99.90;;;;;;5091122;28;20043;-84
2022/05/15 02:22:00;;;;;;;28.98;7.22;;;10.80;99.90;;;;;;5096282;27;20036;-83
2022/05/15 02:24:26;;;;;;;24.65;6.20;;;10.80;99.90;;;;;;5112239;27;20181;-84
2022/05/15 02:26:51;;;;;;;19.98;6.03;;;10.80;99.90;;;;;;5082575;28;20032;-84
2022/05/15 02:29:17;;;;;;;21.80;6.18;;;10.80;99.90;;;;;;5107295;27;20105;-83
2022/05/15 02:31:43;;;;;;;26.70;6.10;;;10.70;99.90;;;;;;5100326;27;20122;-84
2022/05/15 02:34:08;;;;;;;24.33;6.47;;;10.70;99.90;;;;;;5117890;27;20117;-80
2022/05/15 02:36:34;;;;;;;26.80;6.07;;;10.70;99.90;;;;;;5119784;27;20055;-84
2022/05/15 02:39:00;;;;;;;29.25;6.60;;;10.70;99.90;;;;;;5114262;27;20039;-84
2022/05/15 02:41:26;;;;;;;23.05;6.18;;;10.60;99.90;;;;;;5115515;27;20398;-83
2022/05/15 02:43:52;;;;;;;18.38;5.60;;;10.70;99.90;;;;;;5116238;27;20039;-83
2022/05/15 02:46:18;;;;;;;24.83;6.72;;;10.60;99.90;;;;;;5098818;27;20040;-83
2022/05/15 02:51:29;;;;;;;22.25;7.15;;;10.60;99.90;;;;;;5090669;28;20396;-83
2022/05/15 02:53:54;;;;;;;24.65;5.88;;;10.50;99.90;;;;;;5108092;27;20114;-84
2022/05/15 02:56:25;;;;;;;21.30;6.75;;;10.50;99.90;;;;;;5098991;27;20137;-84
2022/05/15 02:58:51;;;;;;;22.17;6.47;;;10.50;99.90;;;;;;5111966;27;20049;-84
2022/05/15 03:01:17;;;;;;;22.65;6.90;;;10.40;99.90;;;;;;5099139;27;21039;-83
2022/05/15 03:03:43;;;;;;;26.60;7.35;;;10.50;99.90;;;;;;5115487;27;20109;-84
2022/05/15 03:06:11;;;;;;;27.17;7.07;;;11.30;99.90;;;;;;5082218;27;20043;-83
2022/05/15 03:08:41;;;;;;;23.25;6.82;;;10.40;99.90;;;;;;5115414;27;20042;-83
2022/05/15 03:11:07;;;;;;;19.27;5.90;;;10.40;99.90;;;;;;5097131;27;20169;-83
2022/05/15 03:13:33;;;;;;;22.30;6.57;;;10.40;99.90;;;;;;5115942;27;20105;-83
2022/05/15 03:15:58;;;;;;;23.73;6.47;;;10.30;99.90;;;;;;5097581;28;20088;-83
2022/05/15 03:18:24;;;;;;;26.35;6.47;;;10.30;99.90;;;;;;5109293;27;20047;-84
2022/05/15 03:20:50;;;;;;;18.48;6.25;;;10.40;99.90;;;;;;5113078;27;20035;-83
2022/05/15 03:23:16;;;;;;;24.10;6.47;;;10.30;99.90;;;;;;5115747;28;20372;-84
2022/05/15 03:25:41;;;;;;;27.55;7.32;;;10.20;99.90;;;;;;5115842;28;20043;-84
2022/05/15 03:28:09;;;;;;;19.67;5.93;;;10.70;99.90;;;;;;5115622;28;20114;-84
2022/05/15 03:30:40;;;;;;;19.40;5.90;;;10.20;99.90;;;;;;5104670;28;20523;-83
2022/05/15 03:33:08;;;;;;;21.35;6.47;;;10.20;99.90;;;;;;5082003;28;20482;-83
2022/05/15 03:35:34;;;;;;;20.70;6.20;;;10.10;99.90;;;;;;5099086;28;20035;-84
2022/05/15 03:38:01;;;;;;;22.48;5.90;;;10.10;99.90;;;;;;5115168;28;20066;-83
2022/05/15 03:40:27;;;;;;;18.40;5.68;;;10.60;99.90;;;;;;5111012;28;20061;-84
2022/05/15 03:42:53;;;;;;;28.10;6.55;;;10.60;99.90;;;;;;5081719;28;20042;-83
2022/05/15 03:45:19;;;;;;;24.17;7.30;;;10.00;99.90;;;;;;5116525;28;20394;-84
2022/05/15 03:47:52;;;;;;;20.15;6.47;;;9.90;99.90;;;;;;5098454;28;20043;-83
2022/05/15 03:50:20;;;;;;;21.73;6.50;;;9.80;99.90;;;;;;5115287;28;20039;-83
2022/05/15 03:52:46;;;;;;;20.15;5.82;;;9.80;99.90;;;;;;5109259;28;20399;-83
2022/05/15 03:55:14;;;;;;;20.10;6.25;;;9.80;99.90;;;;;;5113182;28;20050;-83
2022/05/15 03:57:40;;;;;;;18.38;6.10;;;10.00;99.90;;;;;;5101432;28;20371;-83
2022/05/15 04:00:08;;;;;;;21.25;6.47;;;9.60;99.90;;;;;;5110054;28;20164;-83
2022/05/15 04:02:34;;;;;;;20.00;5.63;;;9.60;99.90;;;;;;5111146;28;20457;-83
2022/05/15 04:05:00;;;;;;;20.35;6.45;;;9.60;99.90;;;;;;5096437;28;20114;-83
2022/05/15 04:07:25;;;;;;;28.08;6.75;;;9.60;99.90;;;;;;5088869;28;20043;-84
2022/05/15 04:09:51;;;;;;;17.02;6.18;;;9.60;99.90;;;;;;5116697;28;20103;-84
2022/05/15 04:12:17;;;;;;;23.35;6.75;;;9.60;99.90;;;;;;5100205;28;20126;-83
2022/05/15 04:14:43;;;;;;;23.40;6.63;;;9.60;99.90;;;;;;5095024;28;20074;-82
2022/05/15 04:17:09;;;;;;;27.70;6.75;;;9.60;99.90;;;;;;5099621;28;20035;-83
2022/05/15 04:19:36;;;;;;;23.40;6.88;;;9.70;99.90;;;;;;5106280;28;20043;-83
2022/05/15 04:22:04;;;;;;;25.02;6.60;;;9.50;99.90;;;;;;5096324;28;20062;-83
2022/05/15 04:24:32;;;;;;;25.27;7.22;;;9.50;99.90;;;;;;5106360;28;20050;-83
2022/05/15 04:26:58;;;;;;;25.15;7.30;;;9.70;99.90;;;;;;5099503;28;20395;-83
2022/05/15 04:29:24;;;;;;;23.58;6.20;;;9.50;99.90;;;;;;5094855;28;20035;-83
2022/05/15 04:31:55;;;;;;;20.17;6.30;;;9.50;99.90;;;;;;5092174;28;20048;-83
2022/05/15 04:34:26;;;;;;;21.83;6.25;;;9.50;99.90;;;;;;5116311;28;20039;-84
2022/05/15 04:36:52;;;;;;;22.42;6.40;;;9.60;99.90;;;;;;5116406;28;20047;-84
2022/05/15 04:39:19;;;;;;;24.52;7.10;;;9.60;99.90;;;;;;5118218;28;20121;-83
2022/05/15 04:41:45;;;;;;;24.45;6.13;;;9.50;99.90;;;;;;5101712;28;20039;-84
2022/05/15 04:44:12;;;;;;;21.13;6.53;;;9.70;99.90;;;;;;5096836;28;20479;-83
2022/05/15 04:46:38;;;;;;;23.10;6.80;;;9.80;99.90;;;;;;5100387;28;20131;-83
2022/05/15 04:49:05;;;;;;;22.75;6.50;;;9.70;99.90;;;;;;5127548;28;20974;-83
2022/05/15 04:51:31;;;;;;;17.48;6.38;;;9.80;99.90;;;;;;5115099;27;20425;-83
2022/05/15 04:53:57;;;;;;;22.05;6.25;;;9.80;99.90;;;;;;5108218;28;20089;-84
2022/05/15 04:56:24;;;;;;;23.92;7.07;;;9.80;99.90;;;;;;5108290;28;20087;-84
2022/05/15 04:58:50;;;;;;;20.15;6.15;;;10.00;99.90;;;;;;5111030;27;20043;-84
2022/05/15 05:01:15;;;;;;;27.17;7.32;;;10.10;99.90;;;;;;5102808;27;20061;-83
2022/05/15 05:03:42;;;;;;;20.40;7.13;;;10.10;99.90;;;;;;5120679;27;20039;-83
2022/05/15 05:06:08;;;;;;;26.30;7.20;;;10.10;99.90;;;;;;5119036;27;20503;-84
2022/05/15 05:08:34;;;;;;;22.75;7.38;;;10.20;99.90;;;;;;5100551;27;20036;-83
2022/05/15 05:10:59;;;;;;;18.63;6.50;;;10.20;99.90;;;;;;5084683;27;20035;-83
2022/05/15 05:13:25;;;;;;;27.17;7.32;;;10.30;99.90;;;;;;5092673;28;20127;-83
2022/05/15 05:15:51;;;;;;;19.00;6.55;;;10.30;99.90;;;;;;5090406;27;20043;-84
2022/05/15 05:18:18;;;;;;;24.58;6.90;;;10.60;99.90;;;;;;5118435;27;20039;-83
2022/05/15 05:20:45;;;;;;;21.73;6.03;;;10.50;99.90;;;;;;5085078;27;20054;-83
2022/05/15 05:23:11;;;;;;;26.73;6.07;;;10.50;99.90;;;;;;5101694;27;20169;-83
2022/05/15 05:25:37;;;;;;;20.15;6.82;;;10.60;99.90;;;;;;5115800;27;20031;-83
2022/05/15 05:28:04;;;;;;;18.90;6.53;;;10.80;99.90;;;;;;5117867;27;20119;-84
2022/05/15 05:30:31;;;;;;;21.20;6.80;;;10.70;99.90;;;;;;5101333;27;20157;-84
2022/05/15 05:32:57;;;;;;;26.67;6.80;;;10.80;99.90;;;;;;5084266;27;20420;-84
2022/05/15 05:35:25;;;;;;;25.25;6.90;;;10.80;99.90;;;;;;5098186;28;20073;-84
2022/05/15 05:37:52;;;;;;;25.10;7.15;;;10.90;99.90;;;;;;5098917;27;20070;-84
2022/05/15 05:40:19;;;;;;;22.17;6.28;;;11.00;99.90;;;;;;5115408;28;20047;-80
2022/05/15 05:42:44;;;;;;;22.15;6.55;;;11.30;99.90;;;;;;5092130;27;20052;-84
2022/05/15 05:45:10;;;;;;;24.73;6.22;;;11.10;99.90;;;;;;5118849;27;20039;-84
2022/05/15 05:47:37;;;;;;;26.85;6.20;;;11.30;99.90;;;;;;5115911;27;20075;-84
2022/05/15 05:50:04;;;;;;;17.52;6.18;;;11.30;99.90;;;;;;5098649;28;20071;-84
2022/05/15 05:52:29;;;;;;;24.90;6.45;;;11.40;99.90;;;;;;5101835;27;20072;-82
2022/05/15 05:54:55;;;;;;;25.98;6.40;;;11.50;99.90;;;;;;5084055;28;20035;-82
2022/05/15 05:57:21;;;;;;;22.05;5.47;;;11.60;99.90;;;;;;5073434;27;20077;-82
2022/05/15 05:59:47;;;;;;;19.25;5.55;;;11.70;99.90;;;;;;5101406;27;20118;-82
2022/05/15 06:02:12;;;;;;;22.20;6.05;;;11.80;99.90;;;;;;5101906;27;20058;-83
2022/05/15 06:04:44;;;;;;;19.15;6.35;;;11.90;99.90;;;;;;5098360;28;20040;-83
2022/05/15 06:07:16;;;;;;;21.00;5.90;;;12.00;99.90;;;;;;5088743;27;20039;-84
2022/05/15 06:09:45;;;;;;;40.90;6.80;;;12.10;99.90;;;;;;5113067;27;20035;-84
2022/05/15 06:12:13;;;;;;;20.77;6.20;;;12.20;99.90;;;;;;5112943;27;20074;-84
2022/05/15 06:14:39;;;;;;;22.15;5.65;;;12.30;99.90;;;;;;5118437;27;20031;-85
2022/05/15 06:17:05;;;;;;;19.40;6.18;;;12.40;99.90;;;;;;5101945;27;20043;-85
2022/05/15 06:19:32;;;;;;;23.80;6.20;;;12.50;99.90;;;;;;5101399;27;20043;-85
2022/05/15 06:21:58;;;;;;;20.10;5.97;;;12.70;99.90;;;;;;5118576;27;20042;-85
2022/05/15 06:24:25;;;;;;;21.40;5.53;;;12.80;99.90;;;;;;5097385;28;20453;-86
2022/05/15 06:26:51;;;;;;;21.95;7.00;;;13.00;99.90;;;;;;5106387;27;20051;-85
2022/05/15 06:29:17;;;;;;;18.67;5.28;;;13.20;99.90;;;;;;5118320;27;20076;-84
2022/05/15 06:31:43;;;;;;;19.42;5.38;;;13.30;99.90;;;;;;5098659;27;20093;-85
2022/05/15 06:34:09;;;;;;;18.20;5.55;;;13.40;99.90;;;;;;5095280;28;20079;-86
2022/05/15 06:36:36;;;;;;;21.35;5.70;;;13.60;99.90;;;;;;5081756;28;20488;-85
2022/05/15 06:39:02;;;;;;;21.83;5.95;;;13.80;99.90;;;;;;5112004;27;20400;-84
2022/05/15 06:41:28;;;;;;;18.05;5.45;;;14.20;99.90;;;;;;5074378;28;20044;-85
2022/05/15 06:43:54;;;;;;;18.65;5.63;;;14.60;99.90;;;;;;5080787;28;20040;-85
2022/05/15 06:46:19;;;;;;;14.77;5.22;;;15.10;99.90;;;;;;5100808;27;20043;-85
2022/05/15 06:48:45;;;;;;;18.63;5.63;;;15.60;99.90;;;;;;5103495;27;20067;-85
2022/05/15 06:51:14;;;;;;;16.13;4.97;;;15.90;99.90;;;;;;5101591;27;20183;-85
2022/05/15 06:53:41;;;;;;;16.13;4.88;;;16.20;99.90;;;;;;5118322;27;20043;-85
2022/05/15 06:58:51;;;;;;;17.23;5.45;;;16.40;99.90;;;;;;5108054;27;20054;-86
2022/05/15 07:01:17;;;;;;;17.67;5.07;;;16.50;99.90;;;;;;5118076;27;20035;-86
2022/05/15 07:03:42;;;;;;;15.85;4.80;;;16.70;99.90;;;;;;5097461;28;20035;-87
2022/05/15 07:06:10;;;;;;;14.75;4.38;;;16.80;99.90;;;;;;5080761;28;20035;-86
2022/05/15 07:08:36;;;;;;;16.55;4.90;;;17.00;99.90;;;;;;5081067;28;20098;-87
2022/05/15 07:11:02;;;;;;;16.90;4.63;;;17.30;99.90;;;;;;5080963;28;20035;-86
2022/05/15 07:13:28;;;;;;;15.13;4.93;;;17.70;99.90;;;;;;5086180;27;20122;-86
2022/05/15 07:15:54;;;;;;;14.45;5.13;;;18.00;99.90;;;;;;5100936;27;20070;-86
2022/05/15 07:18:23;;;;;;;20.95;4.88;;;18.30;99.90;;;;;;5100835;27;20046;-86
2022/05/15 07:20:52;;;;;;;12.88;4.22;;;18.60;99.90;;;;;;5118332;27;20046;-86
2022/05/15 07:23:21;;;;;;;15.48;4.28;;;18.70;99.90;;;;;;5118707;27;20043;-87
2022/05/15 07:25:49;;;;;;;15.40;4.25;;;18.90;99.90;;;;;;5117626;27;20042;-85
2022/05/15 07:28:15;;;;;;;12.93;4.20;;;19.10;99.90;;;;;;5100721;28;20043;-87
2022/05/15 07:30:42;;;;;;;14.13;4.35;;;19.20;99.90;;;;;;5099534;27;20043;-86
2022/05/15 07:33:08;;;;;;;12.63;4.20;;;19.30;99.90;;;;;;5100357;28;20105;-87
2022/05/15 07:35:34;;;;;;;11.43;3.47;;;19.30;99.90;;;;;;5100317;28;20082;-86
2022/05/15 07:38:00;;;;;;;17.40;4.80;;;19.30;99.90;;;;;;5100251;28;20175;-87
2022/05/15 07:40:26;;;;;;;13.48;4.30;;;19.30;99.90;;;;;;5101549;28;20043;-86
2022/05/15 07:42:51;;;;;;;14.43;4.55;;;19.40;99.90;;;;;;5101742;28;20050;-86
2022/05/15 07:45:17;;;;;;;12.15;3.85;;;19.60;99.90;;;;;;5101013;28;20035;-87
2022/05/15 07:47:44;;;;;;;14.23;4.25;;;19.70;99.90;;;;;;5117865;28;20038;-86
2022/05/15 07:50:10;;;;;;;17.55;4.50;;;19.90;99.90;;;;;;5117408;28;20443;-87
2022/05/15 07:52:36;;;;;;;12.18;3.70;;;20.00;99.90;;;;;;5117258;28;20039;-86
2022/05/15 07:55:05;;;;;;;14.85;4.15;;;20.10;99.90;;;;;;5100218;28;20031;-87
2022/05/15 07:57:34;;;;;;;16.73;4.15;;;20.30;99.60;;;;;;5100634;28;20043;-86
2022/05/15 08:00:00;;;;;;;15.45;4.55;;;20.40;98.80;;;;;;5099902;28;20074;-86
2022/05/15 08:02:26;;;;;;;15.35;4.15;;;20.40;98.20;;;;;;5083883;28;20039;-87
2022/05/15 08:10:44;;;;;;;13.23;4.20;;;20.60;98.00;;;;;;5056523;28;20044;-87
2022/05/15 08:13:12;;;;;;;14.20;3.97;;;20.80;97.70;;;;;;5055225;28;20048;-87
2022/05/15 08:15:38;;;;;;;16.42;4.00;;;20.90;95.90;;;;;;5076416;28;20113;-87
2022/05/15 08:23:44;;;;;;;14.20;4.40;;;20.80;95.70;;;;;;5083659;28;20040;-88
2022/05/15 08:26:11;;;;;;;11.00;3.97;;;20.90;95.40;;;;;;5101407;27;20491;-86
2022/05/15 08:28:37;;;;;;;15.75;4.50;;;21.00;94.80;;;;;;5121274;27;20772;-87
2022/05/15 08:31:04;;;;;;;14.02;3.83;;;21.10;94.60;;;;;;5103869;27;20047;-87
2022/05/15 08:33:31;;;;;;;16.90;4.15;;;21.10;94.30;;;;;;5120825;27;20551;-87
2022/05/15 08:35:57;;;;;;;16.63;4.38;;;21.20;94.90;;;;;;5086920;27;20043;-86
2022/05/15 08:38:23;;;;;;;13.20;3.80;;;21.30;93.20;;;;;;5120507;27;20066;-87
2022/05/15 08:41:23;;;;;;;18.40;4.45;;;21.30;92.40;;;;;;5103511;27;20066;-86
2022/05/15 08:44:12;;;;;;;15.63;4.53;;;21.30;91.90;;;;;;5060576;27;20047;-87
2022/05/15 08:46:49;;;;;;;15.35;4.40;;;21.30;91.60;;;;;;5120600;27;20082;-88
2022/05/15 08:49:21;;;;;;;12.27;3.75;;;21.40;92.20;;;;;;5120368;27;20117;-87
2022/05/15 08:52:19;;;;;;;14.55;4.05;;;21.50;92.50;;;;;;5092579;27;20043;-87
2022/05/15 08:55:09;;;;;;;16.05;4.22;;;21.70;91.40;;;;;;5118683;27;20058;-87
2022/05/15 08:57:59;;;;;;;16.70;4.25;;;21.80;90.70;;;;;;5086550;27;20047;-88
2022/05/15 09:00:40;;;;;;;14.18;3.97;;;21.80;90.30;;;;;;5101603;28;20035;-88
2022/05/15 09:03:14;;;;;;;13.80;4.43;;;21.80;90.50;;;;;;5082990;28;20052;-85
2022/05/15 09:06:04;;;;;;;9.93;3.70;;;22.00;88.60;;;;;;5099684;27;20039;-88
2022/05/15 09:08:52;;;;;;;13.18;4.18;;;22.00;89.20;;;;;;5118983;27;20046;-87
2022/05/15 09:11:36;;;;;;;16.98;4.80;;;22.10;89.40;;;;;;5084243;28;20040;-87
2022/05/15 09:14:20;;;;;;;15.35;4.45;;;22.30;88.20;;;;;;5108628;27;20042;-88
2022/05/15 09:16:59;;;;;;;15.50;4.53;;;22.40;85.90;;;;;;5088485;27;20047;-87
2022/05/15 09:19:25;;;;;;;16.13;3.85;;;22.50;86.50;;;;;;5110713;27;20494;-87
2022/05/15 09:21:57;;;;;;;15.05;4.05;;;22.60;86.10;;;;;;5081957;28;20067;-87
2022/05/15 09:24:51;;;;;;;18.92;4.82;;;22.70;83.90;;;;;;5099592;27;20039;-87
2022/05/15 09:27:27;;;;;;;14.80;4.40;;;22.80;84.90;;;;;;5101907;27;20047;-87
2022/05/15 09:29:55;;;;;;;18.10;4.45;;;22.90;84.60;;;;;;5102162;27;20363;-87
2022/05/15 09:32:42;;;;;;;15.27;4.50;;;22.90;83.50;;;;;;5120024;27;20051;-86
2022/05/15 09:35:31;;;;;;;13.93;4.03;;;22.80;82.60;;;;;;5085550;27;20045;-86
2022/05/15 09:43:39;;;;;;;15.90;4.07;;;22.90;80.30;;;;;;5135174;28;20042;-86
2022/05/15 09:46:10;;;;;;;13.32;3.63;;;22.80;81.20;;;;;;5115698;27;20031;-86
2022/05/15 09:48:53;;;;;;;17.75;4.28;;;22.80;82.00;;;;;;5129974;27;20023;-87
2022/05/15 09:51:47;;;;;;;14.98;3.97;;;22.60;81.20;;;;;;5113409;27;20390;-86
2022/05/15 09:54:34;;;;;;;16.90;4.43;;;22.60;80.70;;;;;;5116080;27;20086;-86
2022/05/15 09:57:20;;;;;;;16.90;4.65;;;22.50;81.80;;;;;;5118756;27;20047;-87
2022/05/15 10:00:00;;;;;;;16.40;4.40;;;22.40;79.30;;;;;;5110495;28;20043;-86
2022/05/15 10:02:37;;;;;;;15.48;4.45;;;22.20;82.10;;;;;;5104106;27;20039;-86
2022/05/15 10:05:10;;;;;;;16.58;4.50;;;22.10;79.80;;;;;;5113968;27;20101;-87
2022/05/15 10:07:46;;;;;;;13.27;4.45;;;22.10;80.30;;;;;;5120384;27;20058;-87
2022/05/15 10:10:22;;;;;;;14.27;4.28;;;22.10;77.90;;;;;;5119564;27;20041;-87
2022/05/15 10:12:57;;;;;;;16.15;3.35;;;22.10;77.70;;;;;;5118146;27;20054;-86
2022/05/15 10:15:35;;;;;;;16.50;4.28;;;21.90;79.40;;;;;;5085367;28;20040;-83
2022/05/15 10:18:03;;;;;;;16.73;4.57;;;22.00;80.00;;;;;;5103684;27;20047;-87
2022/05/15 10:20:34;;;;;;;15.90;4.50;;;22.10;78.60;;;;;;5116490;27;20156;-88
2022/05/15 10:23:04;;;;;;;16.83;4.43;;;22.00;78.00;;;;;;5082392;28;20039;-88
2022/05/15 10:25:35;;;;;;;15.60;4.30;;;22.00;78.20;;;;;;5102468;27;20031;-88
2022/05/15 10:28:12;;;;;;;17.85;4.30;;;22.00;77.60;;;;;;5101472;27;20065;-87
2022/05/15 10:31:03;;;;;;;19.30;4.30;;;22.00;77.70;;;;;;5112339;28;20039;-87
2022/05/15 10:33:37;;;;;;;22.70;4.47;;;22.00;78.10;;;;;;5102040;27;20315;-87
2022/05/15 10:36:27;;;;;;;14.65;3.78;;;22.00;78.40;;;;;;5119251;27;20088;-87
2022/05/15 10:39:12;;;;;;;12.05;3.70;;;22.00;77.00;;;;;;5115930;27;20414;-87
2022/05/15 10:41:41;;;;;;;14.65;4.15;;;22.00;76.80;;;;;;5117384;27;20042;-87
2022/05/15 10:44:20;;;;;;;16.90;4.10;;;22.00;76.70;;;;;;5116673;27;20054;-86
2022/05/15 10:46:56;;;;;;;14.32;4.22;;;22.00;75.80;;;;;;5081768;28;20073;-87
2022/05/15 10:50:22;;;;;;;16.17;4.45;;;22.00;74.40;;;;;;5110907;27;20035;-86
2022/05/15 10:57:21;;;;;;;12.32;3.95;;;22.00;72.80;;;;;;5016174;28;20038;-86
2022/05/15 10:59:41;;;;;;;15.60;4.20;;;22.00;75.40;;;;;;5119135;27;20051;-87
2022/05/15 11:02:12;;;;;;;13.13;3.38;;;22.10;74.90;;;;;;5037072;28;20090;-87
2022/05/15 11:05:13;;;;;;;14.52;3.83;;;22.10;75.00;;;;;;5035063;28;20037;-88
2022/05/15 11:07:48;;;;;;;12.45;3.70;;;22.10;74.90;;;;;;5079136;27;20086;-87
2022/05/15 11:10:32;;;;;;;12.25;4.03;;;22.20;74.40;;;;;;5120259;27;20031;-87
2022/05/15 11:13:11;;;;;;;14.32;3.65;;;22.20;74.90;;;;;;5100567;27;20050;-86
2022/05/15 11:16:01;;;;;;;16.20;4.53;;;22.30;72.30;;;;;;5100328;27;20102;-86
2022/05/15 11:18:55;;;;;;;13.02;3.60;;;22.30;73.50;;;;;;5073907;28;20093;-87
2022/05/15 11:21:26;;;;;;;17.20;3.85;;;22.40;72.70;;;;;;5119384;27;20035;-88
2022/05/15 11:24:01;;;;;;;13.10;3.95;;;22.50;70.80;;;;;;5118049;27;20039;-87
2022/05/15 11:26:34;;;;;;;10.85;3.40;;;22.60;71.20;;;;;;5101636;27;20078;-86
2022/05/15 11:29:06;;;;;;;13.88;3.38;;;22.60;70.90;;;;;;5107584;28;20036;-87
2022/05/15 11:31:36;;;;;;;13.77;3.85;;;22.70;71.30;;;;;;5111674;28;20052;-87
2022/05/15 11:34:06;;;;;;;15.00;4.40;;;22.70;71.00;;;;;;5090586;28;20051;-87
2022/05/15 11:36:38;;;;;;;12.98;3.90;;;22.70;71.60;;;;;;5115312;28;20047;-87
2022/05/15 11:39:06;;;;;;;16.67;4.65;;;22.80;71.00;;;;;;5115706;28;20068;-86
2022/05/15 11:41:38;;;;;;;16.90;4.20;;;22.80;70.20;;;;;;5098394;28;20035;-87
2022/05/15 11:44:20;;;;;;;13.50;3.75;;;22.90;70.80;;;;;;5114794;28;20044;-87
2022/05/15 11:46:49;;;;;;;11.95;3.85;;;22.90;70.30;;;;;;5086255;28;20039;-86
2022/05/15 11:49:26;;;;;;;13.80;4.07;;;22.90;70.60;;;;;;5096871;28;20046;-87
2022/05/15 11:52:04;;;;;;;13.80;3.47;;;22.90;69.90;;;;;;5115211;28;20032;-86
2022/05/15 11:54:38;;;;;;;12.57;3.65;;;22.90;69.70;;;;;;5114567;28;20514;-86
2022/05/15 11:57:10;;;;;;;12.25;3.28;;;23.00;69.20;;;;;;5099234;28;20039;-87
2022/05/15 11:59:59;;;;;;;11.32;4.10;;;23.00;70.10;;;;;;5088289;28;20066;-87
2022/05/15 12:02:31;;;;;;;17.25;3.70;;;23.00;69.20;;;;;;5092007;28;20048;-87
2022/05/15 12:05:58;;;;;;;15.27;3.72;;;23.00;69.20;;;;;;5102095;28;20031;-86
2022/05/15 12:08:28;;;;;;;14.60;3.55;;;23.10;68.60;;;;;;5118604;28;20039;-87
2022/05/15 12:10:57;;;;;;;10.98;3.95;;;23.10;67.60;;;;;;5118034;28;20510;-87
2022/05/15 12:13:33;;;;;;;14.02;3.85;;;23.10;69.20;;;;;;5118427;28;20043;-87
2022/05/15 12:16:17;;;;;;;14.85;4.53;;;23.20;67.90;;;;;;5117307;28;20043;-87
2022/05/15 12:18:45;;;;;;;13.77;3.70;;;23.30;68.20;;;;;;5116850;28;20115;-86
2022/05/15 12:21:16;;;;;;;15.73;3.50;;;23.40;67.60;;;;;;5116394;28;20392;-87
2022/05/15 12:26:36;;;;;;;17.33;4.05;;;23.70;66.60;;;;;;5117250;28;20047;-87
2022/05/15 12:29:48;;;;;;;12.60;3.78;;;23.80;66.40;;;;;;5092318;28;20028;-87
2022/05/15 12:32:22;;;;;;;13.00;3.83;;;23.90;65.90;;;;;;5072018;28;20066;-88
2022/05/15 12:34:50;;;;;;;15.25;4.38;;;24.10;66.50;;;;;;5117265;28;20081;-86
2022/05/15 12:37:26;;;;;;;11.95;3.17;;;24.20;65.70;;;;;;5127878;27;20039;-87
2022/05/15 12:39:53;;;;;;;12.77;3.70;;;24.30;64.40;;;;;;5118699;27;20043;-87
2022/05/15 12:42:32;;;;;;;13.55;4.03;;;24.40;65.30;;;;;;5117534;28;20192;-87
2022/05/15 12:45:20;;;;;;;11.98;4.45;;;24.60;65.30;;;;;;5116444;28;20129;-87
2022/05/15 12:48:09;;;;;;;11.68;3.65;;;25.00;64.70;;;;;;5111761;28;20122;-86
2022/05/15 12:51:09;;;;;;;11.18;3.33;;;25.40;64.80;;;;;;5116300;28;20039;-85
2022/05/15 12:53:37;;;;;;;14.82;4.70;;;25.70;64.20;;;;;;5117688;28;20126;-86
2022/05/15 12:56:12;;;;;;;14.32;4.05;;;26.00;63.20;;;;;;5118253;28;20039;-87
2022/05/15 12:58:38;;;;;;;12.48;3.97;;;26.30;64.10;;;;;;5102081;28;20487;-87
2022/05/15 13:01:04;;;;;;;10.93;3.30;;;26.60;63.10;;;;;;5100354;28;20543;-86
2022/05/15 13:03:31;;;;;;;13.40;4.22;;;26.80;62.70;;;;;;5117426;28;20122;-86
2022/05/15 13:06:03;;;;;;;15.02;4.57;;;27.10;62.30;;;;;;5090085;28;20044;-85
2022/05/15 13:08:51;;;;;;;11.05;3.83;;;27.40;61.10;;;;;;5105013;28;20039;-85
2022/05/15 13:11:25;;;;;;;11.70;3.72;;;27.70;59.40;;;;;;5082438;28;20483;-85
2022/05/15 13:13:57;;;;;;;8.85;3.30;;;27.80;58.50;;;;;;5100587;28;20039;-85
2022/05/15 13:16:27;;;;;;;12.98;4.15;;;27.90;57.80;;;;;;5100495;28;20051;-85
2022/05/15 13:18:53;;;;;;;11.80;4.13;;;28.10;57.20;;;;;;5118701;28;20043;-85
2022/05/15 13:21:47;;;;;;;11.35;3.45;;;28.20;57.40;;;;;;5101267;28;20103;-86
2022/05/15 13:24:16;;;;;;;12.40;4.07;;;28.20;55.90;;;;;;5099107;28;20127;-85
2022/05/15 13:26:49;;;;;;;9.23;3.15;;;28.30;57.00;;;;;;5096815;28;20040;-85